AirNav   Everest Fuels
 
 1186 users online  

0M9 Delhi Municipal Airport
Delhi, Louisiana, USA

GOING TO DELHI?


FAA INFORMATION EFFECTIVE 16 JULY 2020

Location

FAA Identifier: 0M9
Lat/Long: 32-24-38.6000N 091-29-54.7000W
32-24.643333N 091-29.911667W
32.4107222,-91.4985278
(estimated)
Elevation: 91 ft. / 27.7 m (surveyed)
Variation: 04E (1985)
From city: 3 miles S of DELHI, LA
Time zone: UTC -5 (UTC -6 during Standard Time)
Zip code: 71232

Airport Operations

Airport use: Open to the public
Activation date: 01/1960
Control tower: no
ARTCC: FORT WORTH CENTER
FSS: DE RIDDER FLIGHT SERVICE STATION
NOTAMs facility: DRI (NOTAM-D service available)
Attendance: UNATNDD
Wind indicator: lighted
Segmented circle: yes
Lights: MIRL RY 18/36, REIL RYS 18 & 36 PRESET LOW INTST DUSK-DAWN; TO INCR INTST ACTVT - CTAF.
Beacon: white-green (lighted land airport)
Operates sunset to sunrise.

Airport Communications

CTAF: 122.9

Nearby radio navigation aids

VOR radial/distance  VOR name  Freq  Var
MLUr100/27.9MONROE VORTAC117.2003E

 
NDB name  Hdg/Dist  Freq  Var  ID
TALLULAH290/25.934402ETKH - -.- ....
BASTROP134/28.432903EBQP -... --.- .--.

Airport Services

Parking: tiedowns

Runway Information

Runway 18/36

Dimensions: 3000 x 75 ft. / 914 x 23 m
Surface: asphalt, in good condition
Weight bearing capacity: 
Single wheel: 5.0
Runway edge lights: medium intensity
RUNWAY 18  RUNWAY 36
Latitude: 32-24.891482N32-24.396660N
Longitude: 091-29.915747W091-29.907590W
Traffic pattern: leftleft
Runway heading: 175 magnetic, 179 true355 magnetic, 359 true
Markings: basic, in good conditionbasic, in good condition
Runway end identifier lights: yesyes
Obstructions: 29 ft. trees, 502 ft. from runway, 141 ft. left of centerline, 10:1 slope to clear
34 FT TREES 113 FT RIGHT OF CNTRLN 246 FT FM END OF RY; 28 FT TREES 124 FT LEFT OF CNTRLN 143 FT FM END OF RY.
15 ft. road, 345 ft. from runway, 10:1 slope to clear
16 FT TREES 123 FT RIGHT OF CNTRLN 221 FT FM END OF RY.

Airport Ownership and Management from official FAA records

Ownership: Publicly-owned
Owner: TOWN OF DELHI
PO BOX 277
DELHI, LA 71232
Phone 318-878-3792
Manager: LOUIS MARTIN
86 AIRPORT RD
DELHI, LA 71232
Phone (318) 614-9210

Airport Operational Statistics

Aircraft based on the field: 3
Single engine airplanes: 2
Multi engine airplanes: 1
    
Aircraft operations: avg 22/day *
50% transient general aviation
50% local general aviation
* for 12-month period ending 19 March 2020

Additional Remarks

RY 18/36 4 FT FENCE 123 FT FM CNTRLN ON BOTH SIDES OF RY.
FOR CD CTC MONROE APCH AT 318-327-5641, IF UNAVBL, CTC FORT WORTH ARTCC AT 817-858-7584.

Instrument Procedures

There are no published instrument procedures at 0M9.

Some nearby airports with instrument procedures:

M79 - John H Hooks Jr Memorial Airport (15 nm W)
KTVR - Vicksburg Tallulah Regional Airport (24 nm E)
KMLU - Monroe Regional Airport (28 nm W)
KBQP - Morehouse Memorial Airport (28 nm NW)
KVKS - Vicksburg Municipal Airport (31 nm E)
 
Loc | Ops | Rwys | IFR | FBO | Links
Com | Nav | Svcs | Stats | Notes
Area around 0M9 (Delhi Municipal Airport)
 
Road maps at: MapQuest Bing Google
 
Aerial photo
WARNING: Photo may not be current or correct
Aerial photo of 0M9 (Delhi Municipal Airport)
Photo by Eddie Delhoste
Photo taken 27-Dec-2012
looking north.

Do you have a better or more recent aerial photo of Delhi Municipal Airport that you would like to share? If so, please send us your photo.

 
Sectional chart

 
Airport distance calculator
Flying to Delhi Municipal Airport? Find the distance to fly.

From to 0M9

Sunrise and sunset
Times for 07-Aug-2020
 Local
(UTC-5)
 Zulu
(UTC)
Morning civil twilight06:0011:00
Sunrise06:2611:26
Sunset19:5700:57
Evening civil twilight20:2301:23

Current date and time
Zulu (UTC)  07-Aug-2020 22:08:28
Local (UTC-5)  07-Aug-2020 17:08:28
 
METAR
KTVR 
24nm E 
072153Z AUTO 02006KT 10SM CLR 33/20 A3006 RMK AO2 SLP183 T03330200
KMLU 
28nm W 
072153Z 03005KT 10SM CLR 33/21 A3007 RMK AO2 SLP179 T03280206
KBQP 
28nm NW 
072155Z AUTO 01003KT 10SM CLR 31/20 A3008 RMK AO2 T03120196 TSNO
KVKS 
31nm E 
072155Z AUTO 36009KT 10SM CLR 32/20 A3004 RMK A01
TAF
KMLU 
28nm W 
071756Z 0718/0818 VRB05KT P6SM SCT120 BKN250 FM080100 00000KT P6SM FEW150 SCT250 FM081500 VRB03KT P6SM FEW250
NOTAMs
Click for the latest NOTAMs
NOTAMs are issued by the DoD/FAA and will open in a separate window not controlled by AirNav.

 

 
 

Would you like to see your business listed on this page?

 If your business provides an interesting product or service to pilots, flight crews, aircraft, or users of the Delhi Municipal Airport, you should consider listing it here.  To start the listing process, click on the button below
 
Add a business
 

Other Pages about Delhi Municipal Airport

Update a link
 
Copyright © AirNav, LLC. All rights reserved. Privacy Policy  Contact